createdAt,value
2018-01-27T00:00:22.601Z,8.80
2018-01-27T00:02:48.851Z,8.80
2018-01-27T00:05:15.150Z,8.80
2018-01-27T00:07:41.451Z,8.70
2018-01-27T00:10:07.760Z,8.70
2018-01-27T00:12:34.062Z,8.60
2018-01-27T00:15:00.442Z,8.50
2018-01-27T00:17:26.670Z,8.60
2018-01-27T00:19:53.003Z,8.50
2018-01-27T00:22:19.646Z,8.50
2018-01-27T00:24:45.908Z,8.50
2018-01-27T00:27:12.274Z,8.60
2018-01-27T00:29:38.625Z,8.60
2018-01-27T00:32:04.864Z,8.60
2018-01-27T00:34:31.069Z,8.70
2018-01-27T00:36:57.689Z,8.70
2018-01-27T00:39:23.906Z,8.70
2018-01-27T00:41:50.116Z,8.70
2018-01-27T00:44:16.401Z,8.80
2018-01-27T00:46:43.597Z,8.80
2018-01-27T00:49:09.820Z,8.80
2018-01-27T00:51:36.075Z,8.80
2018-01-27T00:54:02.334Z,8.80
2018-01-27T00:56:28.559Z,8.90
2018-01-27T00:58:55.208Z,8.90
2018-01-27T01:01:21.851Z,8.90
2018-01-27T01:03:48.522Z,8.90
2018-01-27T01:06:14.784Z,8.90
2018-01-27T01:08:41.020Z,9.00
2018-01-27T01:11:07.274Z,9.00
2018-01-27T01:13:33.914Z,9.00
2018-01-27T01:16:00.576Z,9.00
2018-01-27T01:18:26.812Z,9.00
2018-01-27T01:20:53.054Z,9.00
2018-01-27T01:23:19.287Z,9.00
2018-01-27T01:25:45.567Z,9.10
2018-01-27T01:28:11.891Z,9.00
2018-01-27T01:30:38.512Z,9.00
2018-01-27T01:33:05.131Z,9.00
2018-01-27T01:35:31.365Z,9.00
2018-01-27T01:37:57.610Z,9.00
2018-01-27T01:40:24.239Z,9.00
2018-01-27T01:42:56.610Z,9.00
2018-01-27T01:45:22.883Z,9.10
2018-01-27T01:47:49.113Z,9.10
2018-01-27T01:50:15.379Z,9.00
2018-01-27T01:52:42.370Z,9.10
2018-01-27T01:55:08.647Z,9.10
2018-01-27T01:57:34.859Z,9.10
2018-01-27T02:00:01.805Z,9.10
2018-01-27T02:02:28.075Z,9.10
2018-01-27T02:04:54.675Z,9.00
2018-01-27T02:07:20.955Z,9.00
2018-01-27T02:09:47.585Z,9.10
2018-01-27T02:12:14.260Z,9.10
2018-01-27T02:14:40.545Z,9.10
2018-01-27T02:17:06.917Z,9.10
2018-01-27T02:19:33.161Z,9.10
2018-01-27T02:21:59.505Z,9.10
2018-01-27T02:24:25.776Z,9.10
2018-01-27T02:26:52.406Z,9.10
2018-01-27T02:29:19.053Z,9.10
2018-01-27T02:31:45.629Z,9.10
2018-01-27T02:34:11.906Z,9.10
2018-01-27T02:36:38.573Z,9.00
2018-01-27T02:39:04.819Z,9.00
2018-01-27T02:41:31.101Z,9.10
2018-01-27T02:43:57.308Z,9.10
2018-01-27T02:46:23.567Z,9.00
2018-01-27T02:48:49.784Z,9.00
2018-01-27T02:51:16.081Z,9.00
2018-01-27T02:53:42.362Z,8.90
2018-01-27T02:56:09.002Z,8.90
2018-01-27T02:58:35.259Z,8.90
2018-01-27T03:01:01.539Z,9.00
2018-01-27T03:03:27.776Z,9.00
2018-01-27T03:05:54.068Z,8.90
2018-01-27T03:08:20.309Z,8.80
2018-01-27T03:10:46.558Z,8.80
2018-01-27T03:13:13.183Z,8.90
2018-01-27T03:15:39.420Z,8.80
2018-01-27T03:18:05.691Z,8.80
2018-01-27T03:20:31.908Z,8.80
2018-01-27T03:22:58.170Z,8.80
2018-01-27T03:25:24.460Z,8.80
2018-01-27T03:27:50.759Z,8.80
2018-01-27T03:30:17.019Z,8.90
2018-01-27T03:32:43.283Z,8.90
2018-01-27T03:35:09.529Z,8.90
2018-01-27T03:37:35.738Z,8.80
2018-01-27T03:40:01.958Z,8.80
2018-01-27T03:42:28.218Z,8.70
2018-01-27T03:44:54.445Z,8.70
2018-01-27T03:47:20.696Z,8.70
2018-01-27T03:49:47.311Z,8.70
2018-01-27T03:52:13.577Z,8.70
2018-01-27T03:54:39.809Z,8.70
2018-01-27T03:57:06.055Z,8.70
2018-01-27T03:59:32.292Z,8.70
2018-01-27T04:01:58.522Z,8.70
2018-01-27T04:04:24.780Z,8.70
2018-01-27T04:06:51.041Z,8.70
2018-01-27T04:09:17.652Z,8.70
2018-01-27T04:11:43.871Z,8.70
2018-01-27T04:14:10.120Z,8.70
2018-01-27T04:16:36.397Z,8.80
2018-01-27T04:19:02.625Z,8.80
2018-01-27T04:21:28.871Z,8.90
2018-01-27T04:23:55.112Z,8.80
2018-01-27T04:26:21.378Z,8.80
2018-01-27T04:28:48.013Z,8.70
2018-01-27T04:31:14.269Z,8.70
2018-01-27T04:33:40.560Z,8.60
2018-01-27T04:36:06.800Z,8.60
2018-01-27T04:38:33.408Z,8.50
2018-01-27T04:40:59.665Z,8.50
2018-01-27T04:43:26.306Z,8.50
2018-01-27T04:45:52.969Z,8.50
2018-01-27T04:48:19.236Z,8.50
2018-01-27T04:50:45.481Z,8.60
2018-01-27T04:53:12.102Z,8.60
2018-01-27T04:55:38.340Z,8.60
2018-01-27T04:58:04.587Z,8.60
2018-01-27T05:00:30.900Z,8.60
2018-01-27T05:02:57.143Z,8.50
2018-01-27T05:05:23.801Z,8.30
2018-01-27T05:07:50.060Z,8.20
2018-01-27T05:10:16.351Z,8.30
2018-01-27T05:12:42.950Z,8.30
2018-01-27T05:15:09.273Z,8.30
2018-01-27T05:17:35.507Z,8.30
2018-01-27T05:20:01.803Z,8.30
2018-01-27T05:22:28.038Z,8.50
2018-01-27T05:24:54.286Z,8.50
2018-01-27T05:27:20.513Z,8.40
2018-01-27T05:29:46.780Z,8.30
2018-01-27T05:32:13.047Z,8.30
2018-01-27T05:34:39.298Z,8.30
2018-01-27T05:37:05.543Z,8.30
2018-01-27T05:39:31.754Z,8.40
2018-01-27T05:41:57.991Z,8.40
2018-01-27T05:44:24.255Z,8.40
2018-01-27T05:46:50.841Z,8.50
2018-01-27T05:49:17.083Z,8.50
2018-01-27T05:51:43.327Z,8.50
2018-01-27T05:54:09.678Z,8.40
2018-01-27T05:56:35.906Z,8.50
2018-01-27T05:59:02.577Z,8.50
2018-01-27T06:01:28.868Z,8.50
2018-01-27T06:03:55.486Z,8.50
2018-01-27T06:06:21.761Z,8.50
2018-01-27T06:08:48.100Z,8.50
2018-01-27T06:11:14.368Z,8.50
2018-01-27T06:13:40.593Z,8.50
2018-01-27T06:16:06.815Z,8.50
2018-01-27T06:18:33.089Z,8.50
2018-01-27T06:20:59.730Z,8.60
2018-01-27T06:23:26.376Z,8.60
2018-01-27T06:25:52.627Z,8.60
2018-01-27T06:28:19.056Z,8.60
2018-01-27T06:30:45.279Z,8.50
2018-01-27T06:33:11.532Z,8.50
2018-01-27T06:35:37.752Z,8.60
2018-01-27T06:38:03.993Z,8.60
2018-01-27T06:40:30.261Z,8.50
2018-01-27T06:42:56.531Z,8.60
2018-01-27T06:45:22.781Z,8.50
2018-01-27T06:47:49.011Z,8.50
2018-01-27T06:50:15.290Z,8.50
2018-01-27T06:52:41.512Z,8.60
2018-01-27T06:55:08.135Z,8.50
2018-01-27T06:57:34.770Z,8.50
2018-01-27T07:00:01.424Z,8.50
2018-01-27T07:02:28.062Z,8.50
2018-01-27T07:04:54.732Z,8.50
2018-01-27T07:07:21.029Z,8.50
2018-01-27T07:09:47.276Z,8.50
2018-01-27T07:12:13.568Z,8.50
2018-01-27T07:14:40.243Z,8.50
2018-01-27T07:17:06.517Z,8.50
2018-01-27T07:19:32.831Z,8.50
2018-01-27T07:21:59.068Z,8.60
2018-01-27T07:24:25.305Z,8.70
2018-01-27T07:26:51.521Z,8.50
2018-01-27T07:29:17.840Z,8.40
2018-01-27T07:31:44.061Z,8.40
2018-01-27T07:34:10.369Z,8.20
2018-01-27T07:36:36.654Z,8.30
2018-01-27T07:39:02.996Z,8.50
2018-01-27T07:41:29.286Z,8.50
2018-01-27T07:43:55.578Z,8.60
2018-01-27T07:46:21.796Z,8.70
2018-01-27T07:48:48.586Z,8.80
2018-01-27T07:51:14.886Z,8.80
2018-01-27T07:53:41.277Z,8.80
2018-01-27T07:56:07.940Z,8.90
2018-01-27T07:58:34.796Z,9.00
2018-01-27T08:01:01.049Z,9.00
2018-01-27T08:03:27.302Z,9.10
2018-01-27T08:05:53.604Z,9.10
2018-01-27T08:08:19.882Z,9.10
2018-01-27T08:10:46.283Z,9.10
2018-01-27T08:13:12.589Z,9.20
2018-01-27T08:15:38.957Z,9.20
2018-01-27T08:18:05.230Z,9.30
2018-01-27T08:20:31.524Z,9.30
2018-01-27T08:22:57.955Z,9.20
2018-01-27T08:25:24.269Z,9.30
2018-01-27T08:27:50.629Z,9.40
2018-01-27T08:30:16.992Z,9.50
2018-01-27T08:32:43.289Z,9.50
2018-01-27T08:35:09.607Z,9.40
2018-01-27T08:37:35.962Z,9.40
2018-01-27T08:40:02.259Z,9.50
2018-01-27T08:42:28.592Z,9.60
2018-01-27T08:44:54.858Z,9.70
2018-01-27T08:47:21.148Z,9.60
2018-01-27T08:49:47.383Z,9.60
2018-01-27T08:52:13.615Z,9.60
2018-01-27T08:54:39.892Z,9.70
2018-01-27T08:57:06.152Z,9.70
2018-01-27T08:59:32.422Z,9.70
2018-01-27T09:01:58.687Z,9.70
2018-01-27T09:04:24.976Z,9.70
2018-01-27T09:06:51.597Z,9.70
2018-01-27T09:09:17.817Z,9.70
2018-01-27T09:11:44.079Z,9.70
2018-01-27T09:14:10.696Z,9.60
2018-01-27T09:16:37.002Z,9.60
2018-01-27T09:19:03.326Z,9.50
2018-01-27T09:21:29.655Z,9.50
2018-01-27T09:23:55.900Z,9.60
2018-01-27T09:26:22.188Z,9.60
2018-01-27T09:28:48.478Z,9.70
2018-01-27T09:31:14.743Z,9.70
2018-01-27T09:33:40.986Z,9.80
2018-01-27T09:36:07.268Z,10.00
2018-01-27T09:38:33.942Z,10.60
2018-01-27T09:41:00.199Z,10.60
2018-01-27T09:43:27.116Z,10.70
2018-01-27T09:45:53.346Z,10.70
2018-01-27T09:48:19.607Z,10.70
2018-01-27T09:50:45.877Z,10.70
2018-01-27T09:53:12.811Z,10.60
2018-01-27T09:55:39.490Z,10.80
2018-01-27T09:58:05.835Z,10.80
2018-01-27T10:00:32.071Z,10.90
2018-01-27T10:02:58.324Z,11.00
2018-01-27T10:05:24.809Z,11.00
2018-01-27T10:07:51.020Z,10.90
2018-01-27T10:10:17.274Z,10.90
2018-01-27T10:12:43.532Z,10.90
2018-01-27T10:15:09.773Z,10.90
2018-01-27T10:17:36.088Z,11.00
2018-01-27T10:20:02.369Z,11.10
2018-01-27T10:22:28.632Z,11.20
2018-01-27T10:24:54.939Z,11.20
2018-01-27T10:27:22.546Z,11.50
2018-01-27T10:29:48.814Z,11.50
2018-01-27T10:32:15.037Z,11.60
2018-01-27T10:34:41.316Z,11.80
2018-01-27T10:37:07.564Z,12.10
2018-01-27T10:39:33.804Z,12.20
2018-01-27T10:42:00.097Z,12.40
2018-01-27T10:44:26.396Z,13.00
2018-01-27T10:46:53.434Z,13.30
2018-01-27T10:49:19.811Z,13.30
2018-01-27T10:51:47.068Z,12.90
2018-01-27T10:54:13.351Z,12.50
2018-01-27T10:56:39.661Z,12.40
2018-01-27T10:59:05.959Z,12.30
2018-01-27T11:01:32.261Z,12.30
2018-01-27T11:03:58.527Z,12.30
2018-01-27T11:06:24.831Z,12.70
2018-01-27T11:08:51.114Z,13.20
2018-01-27T11:11:17.820Z,13.70
2018-01-27T11:13:44.129Z,13.70
2018-01-27T11:16:10.464Z,14.00
2018-01-27T11:18:37.223Z,14.20
2018-01-27T11:21:04.891Z,15.50
2018-01-27T11:23:31.192Z,15.50
2018-01-27T11:25:57.458Z,15.40
2018-01-27T11:28:24.171Z,15.00
2018-01-27T11:30:50.445Z,15.00
2018-01-27T11:33:16.769Z,14.70
2018-01-27T11:35:43.463Z,14.20
2018-01-27T11:38:09.702Z,14.20
2018-01-27T11:40:35.967Z,14.00
2018-01-27T11:43:03.278Z,14.00
2018-01-27T11:45:29.996Z,15.30
2018-01-27T11:47:56.223Z,15.30
2018-01-27T11:50:22.548Z,15.60
2018-01-27T11:52:48.873Z,16.10
2018-01-27T11:55:15.112Z,16.70
2018-01-27T11:57:41.431Z,16.80
2018-01-27T12:00:07.791Z,16.80
2018-01-27T12:02:35.114Z,16.60
2018-01-27T12:05:01.377Z,17.00
2018-01-27T12:07:27.653Z,17.10
2018-01-27T12:09:53.972Z,17.00
2018-01-27T12:12:20.652Z,17.60
2018-01-27T12:14:46.990Z,17.70
2018-01-27T12:17:13.300Z,19.30
2018-01-27T12:19:40.199Z,20.50
2018-01-27T12:22:06.484Z,21.00
2018-01-27T12:24:32.739Z,21.60
2018-01-27T12:26:59.175Z,22.50
2018-01-27T12:29:25.532Z,23.30
2018-01-27T12:31:52.898Z,23.60
2018-01-27T12:34:19.191Z,23.50
2018-01-27T12:36:45.530Z,23.20
2018-01-27T12:39:11.883Z,22.70
2018-01-27T12:41:38.543Z,23.10
2018-01-27T12:44:04.831Z,23.10
2018-01-27T12:46:31.075Z,22.90
2018-01-27T12:48:57.332Z,23.10
2018-01-27T12:51:23.600Z,24.10
2018-01-27T12:53:49.968Z,25.00
2018-01-27T12:56:16.647Z,25.70
2018-01-27T12:58:42.934Z,25.70
2018-01-27T13:01:10.243Z,24.70
2018-01-27T13:03:37.493Z,24.70
2018-01-27T13:06:03.795Z,23.70
2018-01-27T13:08:30.083Z,22.50
2018-01-27T13:10:56.381Z,21.60
2018-01-27T13:13:22.633Z,20.90
2018-01-27T13:15:48.913Z,20.30
2018-01-27T13:18:15.145Z,19.70
2018-01-27T13:20:41.480Z,19.60
2018-01-27T13:23:07.746Z,19.70
2018-01-27T13:25:33.988Z,19.40
2018-01-27T13:28:00.390Z,19.60
2018-01-27T13:30:26.663Z,19.40
2018-01-27T13:32:52.990Z,19.50
2018-01-27T13:35:19.667Z,20.00
2018-01-27T13:37:45.920Z,20.00
2018-01-27T13:40:12.198Z,20.60
2018-01-27T13:42:38.503Z,21.10
2018-01-27T13:45:04.761Z,21.50
2018-01-27T13:47:31.418Z,24.60
2018-01-27T13:49:57.837Z,24.60
2018-01-27T13:52:24.098Z,26.70
2018-01-27T13:54:50.375Z,28.10
2018-01-27T13:57:16.657Z,29.50
2018-01-27T13:59:44.169Z,31.30
2018-01-27T14:02:10.834Z,31.80
2018-01-27T14:04:37.100Z,31.80
2018-01-27T14:07:03.440Z,32.40
2018-01-27T14:09:29.740Z,32.90
2018-01-27T14:11:56.075Z,33.30
2018-01-27T14:14:22.396Z,32.10
2018-01-27T14:16:48.720Z,28.80
2018-01-27T14:19:14.986Z,28.30
2018-01-27T14:21:41.344Z,28.80
2018-01-27T14:24:08.209Z,25.70
2018-01-27T14:26:34.471Z,25.70
2018-01-27T14:29:00.755Z,23.50
2018-01-27T14:31:27.374Z,19.40
2018-01-27T14:33:53.924Z,19.40
2018-01-27T14:36:32.640Z,17.00
2018-01-27T14:38:59.298Z,15.90
2018-01-27T14:41:25.719Z,15.90
2018-01-27T14:43:52.825Z,15.20
2018-01-27T14:46:19.138Z,15.00
2018-01-27T14:48:45.377Z,14.20
2018-01-27T14:51:11.684Z,14.00
2018-01-27T14:53:38.822Z,14.00
2018-01-27T14:56:05.142Z,14.20
2018-01-27T14:58:31.490Z,14.20
2018-01-27T15:00:57.871Z,14.20
2018-01-27T15:03:24.232Z,14.10
2018-01-27T15:05:51.045Z,14.00
2018-01-27T15:08:17.751Z,13.60
2018-01-27T15:10:44.081Z,13.60
2018-01-27T15:13:10.849Z,13.40
2018-01-27T15:15:37.183Z,13.20
2018-01-27T15:18:03.985Z,12.80
2018-01-27T15:20:30.332Z,12.80
2018-01-27T15:22:56.720Z,12.50
2018-01-27T15:25:23.064Z,12.50
2018-01-27T15:27:49.410Z,12.30
2018-01-27T15:30:15.741Z,12.20
2018-01-27T15:32:42.084Z,12.10
2018-01-27T15:35:08.406Z,12.20
2018-01-27T15:37:34.769Z,12.20
2018-01-27T15:40:01.116Z,12.10
2018-01-27T15:42:27.796Z,12.00
2018-01-27T15:44:54.127Z,12.00
2018-01-27T15:47:20.383Z,11.70
2018-01-27T15:49:46.987Z,11.80
2018-01-27T15:52:13.332Z,11.70
2018-01-27T15:54:39.639Z,11.60
2018-01-27T15:57:05.935Z,11.60
2018-01-27T15:59:32.214Z,11.40
2018-01-27T16:01:58.959Z,11.30
2018-01-27T16:04:25.441Z,11.20
2018-01-27T16:06:52.134Z,11.00
2018-01-27T16:09:18.413Z,11.00
2018-01-27T16:11:44.684Z,11.20
2018-01-27T16:14:10.936Z,11.20
2018-01-27T16:16:37.348Z,11.20
2018-01-27T16:19:04.084Z,11.30
2018-01-27T16:21:30.483Z,11.40
2018-01-27T16:23:56.779Z,11.50
2018-01-27T16:26:23.087Z,11.50
2018-01-27T16:28:49.402Z,11.70
2018-01-27T16:31:15.722Z,11.70
2018-01-27T16:33:42.111Z,11.70
2018-01-27T16:36:08.398Z,11.60
2018-01-27T16:40:45.602Z,11.30
2018-01-27T16:43:11.881Z,11.10
2018-01-27T16:45:38.459Z,10.90
2018-01-27T16:48:07.036Z,10.80
2018-01-27T16:50:33.332Z,10.80
2018-01-27T16:52:59.920Z,10.80
2018-01-27T16:55:26.236Z,10.90
2018-01-27T16:57:53.540Z,10.90
2018-01-27T17:00:19.969Z,10.90
2018-01-27T17:02:47.023Z,10.80
2018-01-27T17:05:13.417Z,11.00
2018-01-27T17:07:39.742Z,10.90
2018-01-27T17:10:06.128Z,11.00
2018-01-27T17:12:32.501Z,11.00
2018-01-27T17:14:58.905Z,11.00
2018-01-27T17:17:25.350Z,10.90
2018-01-27T17:19:51.632Z,11.00
2018-01-27T17:22:17.923Z,11.00
2018-01-27T17:24:44.238Z,10.90
2018-01-27T17:27:11.307Z,10.70
2018-01-27T17:29:37.685Z,10.70
2018-01-27T17:32:04.986Z,10.80
2018-01-27T17:34:31.282Z,10.80
2018-01-27T17:36:58.031Z,10.90
2018-01-27T17:39:24.383Z,10.90
2018-01-27T17:41:50.776Z,11.00
2018-01-27T17:44:17.198Z,10.90
2018-01-27T17:46:43.864Z,10.70
2018-01-27T17:49:10.228Z,10.80
2018-01-27T17:51:36.661Z,10.90
2018-01-27T17:54:03.135Z,11.00
2018-01-27T17:56:29.476Z,11.00
2018-01-27T17:58:56.143Z,11.00
2018-01-27T18:01:22.529Z,11.00
2018-01-27T18:03:49.248Z,11.00
2018-01-27T18:06:15.549Z,11.00
2018-01-27T18:08:41.831Z,11.00
2018-01-27T18:11:08.449Z,10.90
2018-01-27T18:13:34.735Z,10.80
2018-01-27T18:16:00.971Z,10.80
2018-01-27T18:18:27.686Z,10.90
2018-01-27T18:20:53.960Z,11.00
2018-01-27T18:23:20.296Z,10.90
2018-01-27T18:25:46.574Z,10.80
2018-01-27T18:28:12.867Z,10.70
2018-01-27T18:30:39.170Z,10.60
2018-01-27T18:33:05.420Z,10.70
2018-01-27T18:35:31.753Z,10.80
2018-01-27T18:40:14.480Z,10.60
2018-01-27T18:42:40.768Z,10.50
2018-01-27T18:45:07.006Z,10.50
2018-01-27T18:47:33.317Z,10.50
2018-01-27T18:49:59.602Z,10.50
2018-01-27T18:52:25.936Z,10.40
2018-01-27T18:54:52.258Z,10.40
2018-01-27T18:59:39.088Z,10.20
2018-01-27T19:02:05.405Z,10.30
2018-01-27T19:04:31.720Z,10.30
2018-01-27T19:06:58.004Z,10.10
2018-01-27T19:09:24.631Z,10.30
2018-01-27T19:11:51.269Z,10.30
2018-01-27T19:14:17.938Z,10.30
2018-01-27T19:16:44.320Z,10.30
2018-01-27T19:19:10.577Z,10.40
2018-01-27T19:21:37.263Z,10.40
2018-01-27T19:24:04.318Z,10.40
2018-01-27T19:26:30.637Z,10.30
2018-01-27T19:28:57.005Z,10.20
2018-01-27T19:31:23.331Z,10.20
2018-01-27T19:33:49.684Z,10.10
2018-01-27T19:36:16.011Z,9.90
2018-01-27T19:38:42.694Z,9.80
2018-01-27T19:41:09.850Z,9.80
2018-01-27T19:43:36.150Z,9.90
2018-01-27T19:46:02.883Z,10.10
2018-01-27T19:48:29.206Z,10.10
2018-01-27T19:50:55.542Z,10.20
2018-01-27T19:53:21.870Z,10.20
2018-01-27T19:55:48.262Z,10.00
2018-01-27T19:58:14.575Z,9.80
2018-01-27T20:00:40.919Z,9.90
2018-01-27T20:03:07.269Z,9.80
2018-01-27T20:05:33.521Z,9.70
2018-01-27T20:07:59.856Z,10.00
2018-01-27T20:10:26.284Z,10.00
2018-01-27T20:12:52.692Z,9.80
2018-01-27T20:15:19.346Z,10.00
2018-01-27T20:17:46.031Z,9.80
2018-01-27T20:20:12.340Z,9.90
2018-01-27T20:22:38.723Z,9.80
2018-01-27T20:25:05.058Z,9.90
2018-01-27T20:27:33.092Z,9.80
2018-01-27T20:29:59.377Z,9.80
2018-01-27T20:32:26.067Z,9.70
2018-01-27T20:34:52.317Z,9.70
2018-01-27T20:37:19.163Z,9.60
2018-01-27T20:39:45.446Z,9.50
2018-01-27T20:42:11.782Z,9.50
2018-01-27T20:44:38.111Z,9.60
2018-01-27T20:47:04.434Z,9.80
2018-01-27T20:49:30.688Z,9.70
2018-01-27T20:51:57.924Z,9.70
2018-01-27T20:54:24.603Z,9.70
2018-01-27T20:56:50.969Z,9.60
2018-01-27T20:59:17.335Z,9.50
2018-01-27T21:01:43.675Z,9.50
2018-01-27T21:04:10.173Z,9.30
2018-01-27T21:06:36.541Z,9.20
2018-01-27T21:09:02.970Z,9.20
2018-01-27T21:11:29.263Z,9.20
2018-01-27T21:13:56.357Z,9.20
2018-01-27T21:16:22.644Z,9.30
2018-01-27T21:18:48.948Z,9.50
2018-01-27T21:21:15.325Z,9.20
2018-01-27T21:23:42.869Z,9.10
2018-01-27T21:26:09.275Z,8.90
2018-01-27T21:28:36.241Z,8.80
2018-01-27T21:31:02.572Z,9.00
2018-01-27T21:33:28.880Z,9.00
2018-01-27T21:35:55.603Z,8.80
2018-01-27T21:38:21.911Z,8.80
2018-01-27T21:40:48.279Z,8.90
2018-01-27T21:43:14.613Z,8.90
2018-01-27T21:45:41.291Z,9.00
2018-01-27T21:48:07.612Z,9.00
2018-01-27T21:50:33.956Z,9.00
2018-01-27T21:53:00.227Z,9.00
2018-01-27T21:55:26.550Z,9.00
2018-01-27T21:57:52.974Z,9.00
2018-01-27T22:00:19.640Z,8.90
2018-01-27T22:02:46.284Z,8.90
2018-01-27T22:05:12.619Z,8.80
2018-01-27T22:07:38.935Z,8.80
2018-01-27T22:10:05.329Z,8.90
2018-01-27T22:14:45.264Z,8.90
2018-01-27T22:17:11.528Z,9.00
2018-01-27T22:19:37.863Z,9.00
2018-01-27T22:22:04.207Z,8.80
2018-01-27T22:24:30.873Z,8.80
2018-01-27T22:26:57.223Z,8.80
2018-01-27T22:29:23.602Z,8.70
2018-01-27T22:31:49.912Z,8.70
2018-01-27T22:34:16.205Z,8.60
2018-01-27T22:36:42.516Z,8.50
2018-01-27T22:39:08.832Z,8.40
2018-01-27T22:41:35.528Z,8.70
2018-01-27T22:44:01.843Z,8.70
2018-01-27T22:46:28.213Z,8.50
2018-01-27T22:48:54.515Z,8.70
2018-01-27T22:51:20.842Z,8.40
2018-01-27T22:53:47.129Z,8.40
2018-01-27T22:56:13.436Z,8.40
2018-01-27T22:58:39.813Z,8.40
2018-01-27T23:01:12.203Z,8.40
2018-01-27T23:03:38.460Z,8.40
2018-01-27T23:06:04.782Z,8.40
2018-01-27T23:08:31.083Z,8.50
2018-01-27T23:10:57.351Z,8.50
2018-01-27T23:13:23.619Z,8.40
2018-01-27T23:15:52.844Z,8.50
2018-01-27T23:18:19.164Z,8.40
2018-01-27T23:20:45.388Z,8.40
2018-01-27T23:23:11.663Z,8.50
2018-01-27T23:25:37.906Z,8.50
2018-01-27T23:28:04.169Z,8.40
2018-01-27T23:30:30.464Z,8.50
2018-01-27T23:32:57.075Z,8.50
2018-01-27T23:35:23.357Z,8.50
2018-01-27T23:37:49.656Z,8.60
2018-01-27T23:40:15.939Z,8.50
2018-01-27T23:42:42.219Z,8.60
2018-01-27T23:45:08.496Z,8.70
2018-01-27T23:47:34.725Z,8.70
2018-01-27T23:50:00.988Z,8.70
2018-01-27T23:52:27.272Z,8.80
2018-01-27T23:54:53.526Z,8.80
2018-01-27T23:57:19.809Z,8.80
2018-01-27T23:59:47.447Z,8.60
